sensor_id;sensor_type;location;lat;lon;timestamp;P1;durP1;ratioP1;P2;durP2;ratioP2
20294;SDS011;10306;52.128;5.208;2023-03-24T00:01:21;4.37;;;3.40;;
20294;SDS011;10306;52.128;5.208;2023-03-24T00:03:47;3.60;;;3.30;;
20294;SDS011;10306;52.128;5.208;2023-03-24T00:06:15;4.77;;;3.10;;
20294;SDS011;10306;52.128;5.208;2023-03-24T00:08:42;4.43;;;3.30;;
20294;SDS011;10306;52.128;5.208;2023-03-24T00:11:12;3.77;;;3.27;;
20294;SDS011;10306;52.128;5.208;2023-03-24T00:13:38;4.33;;;2.90;;
20294;SDS011;10306;52.128;5.208;2023-03-24T00:16:08;6.23;;;3.40;;
20294;SDS011;10306;52.128;5.208;2023-03-24T00:18:35;3.07;;;2.80;;
20294;SDS011;10306;52.128;5.208;2023-03-24T00:21:02;4.17;;;3.30;;
20294;SDS011;10306;52.128;5.208;2023-03-24T00:23:29;3.43;;;3.13;;
20294;SDS011;10306;52.128;5.208;2023-03-24T00:26:00;3.50;;;2.90;;
20294;SDS011;10306;52.128;5.208;2023-03-24T00:28:27;4.20;;;2.80;;
20294;SDS011;10306;52.128;5.208;2023-03-24T00:30:53;4.17;;;3.30;;
20294;SDS011;10306;52.128;5.208;2023-03-24T00:33:19;3.57;;;2.90;;
20294;SDS011;10306;52.128;5.208;2023-03-24T00:35:45;3.97;;;2.73;;
20294;SDS011;10306;52.128;5.208;2023-03-24T00:38:12;3.93;;;3.03;;
20294;SDS011;10306;52.128;5.208;2023-03-24T00:40:38;5.43;;;3.27;;
20294;SDS011;10306;52.128;5.208;2023-03-24T00:43:09;3.67;;;2.93;;
20294;SDS011;10306;52.128;5.208;2023-03-24T00:45:37;5.10;;;3.13;;
20294;SDS011;10306;52.128;5.208;2023-03-24T00:48:10;3.53;;;3.23;;
20294;SDS011;10306;52.128;5.208;2023-03-24T00:50:35;3.80;;;3.20;;
20294;SDS011;10306;52.128;5.208;2023-03-24T00:53:01;3.37;;;3.17;;
20294;SDS011;10306;52.128;5.208;2023-03-24T00:55:27;3.30;;;3.10;;
20294;SDS011;10306;52.128;5.208;2023-03-24T00:57:53;3.53;;;3.33;;
20294;SDS011;10306;52.128;5.208;2023-03-24T01:00:21;8.03;;;3.97;;
20294;SDS011;10306;52.128;5.208;2023-03-24T01:02:48;3.87;;;3.47;;
20294;SDS011;10306;52.128;5.208;2023-03-24T01:05:18;3.40;;;3.20;;
20294;SDS011;10306;52.128;5.208;2023-03-24T01:07:45;3.13;;;2.93;;
20294;SDS011;10306;52.128;5.208;2023-03-24T01:10:16;4.03;;;3.67;;
20294;SDS011;10306;52.128;5.208;2023-03-24T01:12:43;5.07;;;3.03;;
20294;SDS011;10306;52.128;5.208;2023-03-24T01:15:13;3.57;;;3.20;;
20294;SDS011;10306;52.128;5.208;2023-03-24T01:17:39;3.40;;;3.10;;
20294;SDS011;10306;52.128;5.208;2023-03-24T01:20:05;3.80;;;3.50;;
20294;SDS011;10306;52.128;5.208;2023-03-24T01:22:34;3.60;;;3.30;;
20294;SDS011;10306;52.128;5.208;2023-03-24T01:25:02;5.50;;;3.40;;
20294;SDS011;10306;52.128;5.208;2023-03-24T01:27:28;4.00;;;3.30;;
20294;SDS011;10306;52.128;5.208;2023-03-24T01:29:57;5.13;;;3.67;;
20294;SDS011;10306;52.128;5.208;2023-03-24T01:32:23;4.23;;;3.93;;
20294;SDS011;10306;52.128;5.208;2023-03-24T01:34:49;3.73;;;3.47;;
20294;SDS011;10306;52.128;5.208;2023-03-24T01:37:15;3.67;;;3.33;;
20294;SDS011;10306;52.128;5.208;2023-03-24T01:39:41;5.23;;;3.60;;
20294;SDS011;10306;52.128;5.208;2023-03-24T01:42:10;4.03;;;3.67;;
20294;SDS011;10306;52.128;5.208;2023-03-24T01:44:41;3.90;;;3.60;;
20294;SDS011;10306;52.128;5.208;2023-03-24T01:47:07;3.90;;;3.60;;
20294;SDS011;10306;52.128;5.208;2023-03-24T01:49:35;4.30;;;3.83;;
20294;SDS011;10306;52.128;5.208;2023-03-24T01:52:02;4.13;;;3.50;;
20294;SDS011;10306;52.128;5.208;2023-03-24T01:54:34;4.07;;;3.57;;
20294;SDS011;10306;52.128;5.208;2023-03-24T01:59:27;4.23;;;3.93;;
20294;SDS011;10306;52.128;5.208;2023-03-24T02:01:54;3.90;;;3.67;;
20294;SDS011;10306;52.128;5.208;2023-03-24T02:04:27;3.97;;;3.77;;
20294;SDS011;10306;52.128;5.208;2023-03-24T02:06:54;5.33;;;3.70;;
20294;SDS011;10306;52.128;5.208;2023-03-24T02:09:20;4.03;;;3.83;;
20294;SDS011;10306;52.128;5.208;2023-03-24T02:11:46;4.83;;;4.27;;
20294;SDS011;10306;52.128;5.208;2023-03-24T02:14:12;4.43;;;3.97;;
20294;SDS011;10306;52.128;5.208;2023-03-24T02:19:12;4.50;;;4.20;;
20294;SDS011;10306;52.128;5.208;2023-03-24T02:24:35;4.90;;;4.50;;
20294;SDS011;10306;52.128;5.208;2023-03-24T02:27:13;3.97;;;3.60;;
20294;SDS011;10306;52.128;5.208;2023-03-24T02:29:58;2.90;;;2.80;;
20294;SDS011;10306;52.128;5.208;2023-03-24T02:38:14;2.33;;;2.23;;
20294;SDS011;10306;52.128;5.208;2023-03-24T02:51:13;1.90;;;1.10;;
20294;SDS011;10306;52.128;5.208;2023-03-24T02:53:54;1.47;;;1.00;;
20294;SDS011;10306;52.128;5.208;2023-03-24T02:58:54;4.80;;;1.20;;
20294;SDS011;10306;52.128;5.208;2023-03-24T03:01:26;2.57;;;1.00;;
20294;SDS011;10306;52.128;5.208;2023-03-24T03:04:01;2.93;;;1.50;;
20294;SDS011;10306;52.128;5.208;2023-03-24T03:06:29;2.03;;;0.93;;
20294;SDS011;10306;52.128;5.208;2023-03-24T03:08:57;1.43;;;1.20;;
20294;SDS011;10306;52.128;5.208;2023-03-24T03:11:25;2.40;;;1.13;;
20294;SDS011;10306;52.128;5.208;2023-03-24T03:13:52;1.90;;;1.30;;
20294;SDS011;10306;52.128;5.208;2023-03-24T03:16:24;3.40;;;1.33;;
20294;SDS011;10306;52.128;5.208;2023-03-24T03:18:59;1.97;;;1.23;;
20294;SDS011;10306;52.128;5.208;2023-03-24T03:21:27;1.90;;;1.10;;
20294;SDS011;10306;52.128;5.208;2023-03-24T03:23:59;5.07;;;1.17;;
20294;SDS011;10306;52.128;5.208;2023-03-24T03:26:26;1.40;;;1.00;;
20294;SDS011;10306;52.128;5.208;2023-03-24T03:28:57;1.10;;;1.00;;
20294;SDS011;10306;52.128;5.208;2023-03-24T03:31:26;1.13;;;0.90;;
20294;SDS011;10306;52.128;5.208;2023-03-24T03:36:30;6.57;;;1.70;;
20294;SDS011;10306;52.128;5.208;2023-03-24T03:39:04;2.87;;;1.03;;
20294;SDS011;10306;52.128;5.208;2023-03-24T03:41:32;0.90;;;0.90;;
20294;SDS011;10306;52.128;5.208;2023-03-24T03:43:58;6.50;;;1.57;;
20294;SDS011;10306;52.128;5.208;2023-03-24T03:46:25;4.60;;;1.43;;
20294;SDS011;10306;52.128;5.208;2023-03-24T03:48:51;3.73;;;1.13;;
20294;SDS011;10306;52.128;5.208;2023-03-24T03:51:17;2.93;;;1.07;;
20294;SDS011;10306;52.128;5.208;2023-03-24T03:53:58;5.87;;;1.20;;
20294;SDS011;10306;52.128;5.208;2023-03-24T03:56:28;7.23;;;1.47;;
20294;SDS011;10306;52.128;5.208;2023-03-24T03:58:55;2.83;;;1.43;;
20294;SDS011;10306;52.128;5.208;2023-03-24T04:01:23;2.50;;;1.30;;
20294;SDS011;10306;52.128;5.208;2023-03-24T04:14:33;7.13;;;2.37;;
20294;SDS011;10306;52.128;5.208;2023-03-24T04:17:06;4.07;;;1.97;;
20294;SDS011;10306;52.128;5.208;2023-03-24T04:19:41;1.97;;;1.50;;
20294;SDS011;10306;52.128;5.208;2023-03-24T04:24:50;3.57;;;1.63;;
20294;SDS011;10306;52.128;5.208;2023-03-24T04:27:27;4.73;;;1.37;;
20294;SDS011;10306;52.128;5.208;2023-03-24T04:30:11;5.47;;;2.10;;
20294;SDS011;10306;52.128;5.208;2023-03-24T04:32:43;3.80;;;1.87;;
20294;SDS011;10306;52.128;5.208;2023-03-24T04:35:17;6.83;;;2.10;;
20294;SDS011;10306;52.128;5.208;2023-03-24T04:37:50;6.63;;;1.60;;
20294;SDS011;10306;52.128;5.208;2023-03-24T04:40:17;3.73;;;1.70;;
20294;SDS011;10306;52.128;5.208;2023-03-24T04:42:45;7.70;;;2.33;;
20294;SDS011;10306;52.128;5.208;2023-03-24T04:45:13;8.10;;;2.27;;
20294;SDS011;10306;52.128;5.208;2023-03-24T04:47:45;5.43;;;1.57;;
20294;SDS011;10306;52.128;5.208;2023-03-24T04:50:12;9.33;;;2.53;;
20294;SDS011;10306;52.128;5.208;2023-03-24T04:52:40;7.13;;;2.33;;
20294;SDS011;10306;52.128;5.208;2023-03-24T04:57:51;7.63;;;1.70;;
20294;SDS011;10306;52.128;5.208;2023-03-24T05:00:17;4.53;;;1.53;;
20294;SDS011;10306;52.128;5.208;2023-03-24T05:02:43;5.83;;;1.93;;
20294;SDS011;10306;52.128;5.208;2023-03-24T05:05:10;8.17;;;1.97;;
20294;SDS011;10306;52.128;5.208;2023-03-24T05:07:36;7.63;;;2.37;;
20294;SDS011;10306;52.128;5.208;2023-03-24T05:10:02;9.80;;;2.00;;
20294;SDS011;10306;52.128;5.208;2023-03-24T05:12:28;10.97;;;3.03;;
20294;SDS011;10306;52.128;5.208;2023-03-24T05:14:54;13.87;;;2.23;;
20294;SDS011;10306;52.128;5.208;2023-03-24T05:17:20;12.43;;;2.30;;
20294;SDS011;10306;52.128;5.208;2023-03-24T05:19:46;12.40;;;2.07;;
20294;SDS011;10306;52.128;5.208;2023-03-24T05:22:12;8.77;;;2.10;;
20294;SDS011;10306;52.128;5.208;2023-03-24T05:24:38;6.93;;;1.80;;
20294;SDS011;10306;52.128;5.208;2023-03-24T05:27:04;11.47;;;2.37;;
20294;SDS011;10306;52.128;5.208;2023-03-24T05:29:30;9.17;;;2.00;;
20294;SDS011;10306;52.128;5.208;2023-03-24T05:31:56;10.33;;;2.23;;
20294;SDS011;10306;52.128;5.208;2023-03-24T05:34:22;8.10;;;2.17;;
20294;SDS011;10306;52.128;5.208;2023-03-24T05:36:48;4.63;;;1.87;;
20294;SDS011;10306;52.128;5.208;2023-03-24T05:39:14;14.07;;;2.50;;
20294;SDS011;10306;52.128;5.208;2023-03-24T05:41:40;10.63;;;1.87;;
20294;SDS011;10306;52.128;5.208;2023-03-24T05:44:06;10.43;;;2.20;;
20294;SDS011;10306;52.128;5.208;2023-03-24T05:46:32;11.60;;;2.27;;
20294;SDS011;10306;52.128;5.208;2023-03-24T05:48:58;11.67;;;2.57;;
20294;SDS011;10306;52.128;5.208;2023-03-24T05:51:24;9.90;;;2.40;;
20294;SDS011;10306;52.128;5.208;2023-03-24T05:53:50;9.43;;;2.10;;
20294;SDS011;10306;52.128;5.208;2023-03-24T05:56:16;12.23;;;2.37;;
20294;SDS011;10306;52.128;5.208;2023-03-24T05:58:42;13.40;;;3.27;;
20294;SDS011;10306;52.128;5.208;2023-03-24T06:01:09;17.83;;;2.40;;
20294;SDS011;10306;52.128;5.208;2023-03-24T06:03:36;13.67;;;2.27;;
20294;SDS011;10306;52.128;5.208;2023-03-24T06:06:05;11.97;;;2.10;;
20294;SDS011;10306;52.128;5.208;2023-03-24T06:08:32;6.60;;;2.10;;
20294;SDS011;10306;52.128;5.208;2023-03-24T06:10:58;14.57;;;3.27;;
20294;SDS011;10306;52.128;5.208;2023-03-24T06:13:26;9.93;;;2.20;;
20294;SDS011;10306;52.128;5.208;2023-03-24T06:15:52;10.00;;;2.30;;
20294;SDS011;10306;52.128;5.208;2023-03-24T06:18:18;8.07;;;2.30;;
20294;SDS011;10306;52.128;5.208;2023-03-24T06:20:45;18.13;;;2.80;;
20294;SDS011;10306;52.128;5.208;2023-03-24T06:23:14;6.10;;;2.23;;
20294;SDS011;10306;52.128;5.208;2023-03-24T06:25:41;12.33;;;2.20;;
20294;SDS011;10306;52.128;5.208;2023-03-24T06:28:11;11.57;;;2.07;;
20294;SDS011;10306;52.128;5.208;2023-03-24T06:30:38;6.93;;;2.23;;
20294;SDS011;10306;52.128;5.208;2023-03-24T06:33:04;9.13;;;2.60;;
20294;SDS011;10306;52.128;5.208;2023-03-24T06:35:30;6.60;;;2.00;;
20294;SDS011;10306;52.128;5.208;2023-03-24T06:37:56;9.77;;;2.40;;
20294;SDS011;10306;52.128;5.208;2023-03-24T06:40:22;12.30;;;2.47;;
20294;SDS011;10306;52.128;5.208;2023-03-24T06:42:48;10.17;;;2.53;;
20294;SDS011;10306;52.128;5.208;2023-03-24T06:45:14;5.63;;;2.00;;
20294;SDS011;10306;52.128;5.208;2023-03-24T06:47:40;11.63;;;2.30;;
20294;SDS011;10306;52.128;5.208;2023-03-24T06:50:06;9.87;;;2.37;;
20294;SDS011;10306;52.128;5.208;2023-03-24T06:52:32;8.80;;;2.27;;
20294;SDS011;10306;52.128;5.208;2023-03-24T06:54:59;14.60;;;2.70;;
20294;SDS011;10306;52.128;5.208;2023-03-24T06:57:25;11.13;;;2.27;;
20294;SDS011;10306;52.128;5.208;2023-03-24T06:59:51;7.17;;;2.27;;
20294;SDS011;10306;52.128;5.208;2023-03-24T07:02:17;5.63;;;2.23;;
20294;SDS011;10306;52.128;5.208;2023-03-24T07:04:43;6.20;;;2.47;;
20294;SDS011;10306;52.128;5.208;2023-03-24T07:07:09;8.17;;;2.27;;
20294;SDS011;10306;52.128;5.208;2023-03-24T07:09:36;8.00;;;2.10;;
20294;SDS011;10306;52.128;5.208;2023-03-24T07:12:03;7.90;;;2.20;;
20294;SDS011;10306;52.128;5.208;2023-03-24T07:14:29;7.23;;;2.37;;
20294;SDS011;10306;52.128;5.208;2023-03-24T07:16:55;11.53;;;2.90;;
20294;SDS011;10306;52.128;5.208;2023-03-24T07:19:23;8.27;;;2.03;;
20294;SDS011;10306;52.128;5.208;2023-03-24T07:21:49;7.50;;;2.37;;
20294;SDS011;10306;52.128;5.208;2023-03-24T07:24:15;6.00;;;2.17;;
20294;SDS011;10306;52.128;5.208;2023-03-24T07:26:42;10.90;;;2.63;;
20294;SDS011;10306;52.128;5.208;2023-03-24T07:29:08;10.10;;;2.53;;
20294;SDS011;10306;52.128;5.208;2023-03-24T07:31:34;12.93;;;3.03;;
20294;SDS011;10306;52.128;5.208;2023-03-24T07:34:03;9.17;;;2.43;;
20294;SDS011;10306;52.128;5.208;2023-03-24T07:36:29;4.37;;;2.40;;
20294;SDS011;10306;52.128;5.208;2023-03-24T07:38:55;5.50;;;1.73;;
20294;SDS011;10306;52.128;5.208;2023-03-24T07:41:21;4.97;;;2.10;;
20294;SDS011;10306;52.128;5.208;2023-03-24T07:43:48;5.53;;;2.00;;
20294;SDS011;10306;52.128;5.208;2023-03-24T07:46:14;7.53;;;2.37;;
20294;SDS011;10306;52.128;5.208;2023-03-24T07:48:41;11.33;;;2.57;;
20294;SDS011;10306;52.128;5.208;2023-03-24T07:51:07;17.60;;;2.83;;
20294;SDS011;10306;52.128;5.208;2023-03-24T07:53:33;7.63;;;2.00;;
20294;SDS011;10306;52.128;5.208;2023-03-24T07:55:58;4.47;;;1.63;;
20294;SDS011;10306;52.128;5.208;2023-03-24T07:58:25;5.30;;;2.23;;
20294;SDS011;10306;52.128;5.208;2023-03-24T08:00:51;5.83;;;2.07;;
20294;SDS011;10306;52.128;5.208;2023-03-24T08:03:17;3.90;;;2.07;;
20294;SDS011;10306;52.128;5.208;2023-03-24T08:05:43;7.03;;;2.87;;
20294;SDS011;10306;52.128;5.208;2023-03-24T08:08:10;9.60;;;2.13;;
20294;SDS011;10306;52.128;5.208;2023-03-24T08:10:36;3.50;;;1.80;;
20294;SDS011;10306;52.128;5.208;2023-03-24T08:13:02;8.17;;;2.27;;
20294;SDS011;10306;52.128;5.208;2023-03-24T08:15:28;5.00;;;1.70;;
20294;SDS011;10306;52.128;5.208;2023-03-24T08:17:54;10.27;;;2.63;;
20294;SDS011;10306;52.128;5.208;2023-03-24T08:20:20;4.53;;;2.10;;
20294;SDS011;10306;52.128;5.208;2023-03-24T08:22:48;5.70;;;2.13;;
20294;SDS011;10306;52.128;5.208;2023-03-24T08:25:18;5.80;;;2.40;;
20294;SDS011;10306;52.128;5.208;2023-03-24T08:27:44;5.83;;;2.17;;
20294;SDS011;10306;52.128;5.208;2023-03-24T08:30:21;6.17;;;1.80;;
20294;SDS011;10306;52.128;5.208;2023-03-24T08:32:48;7.27;;;1.70;;
20294;SDS011;10306;52.128;5.208;2023-03-24T08:35:16;7.13;;;2.23;;
20294;SDS011;10306;52.128;5.208;2023-03-24T08:37:43;8.17;;;2.27;;
20294;SDS011;10306;52.128;5.208;2023-03-24T08:40:10;7.93;;;2.47;;
20294;SDS011;10306;52.128;5.208;2023-03-24T08:42:37;6.70;;;2.43;;
20294;SDS011;10306;52.128;5.208;2023-03-24T08:45:03;10.43;;;2.20;;
20294;SDS011;10306;52.128;5.208;2023-03-24T08:47:29;5.17;;;2.03;;
20294;SDS011;10306;52.128;5.208;2023-03-24T08:49:55;6.37;;;2.23;;
20294;SDS011;10306;52.128;5.208;2023-03-24T08:52:22;8.67;;;2.30;;
20294;SDS011;10306;52.128;5.208;2023-03-24T08:54:48;6.70;;;2.17;;
20294;SDS011;10306;52.128;5.208;2023-03-24T08:57:15;8.97;;;2.27;;
20294;SDS011;10306;52.128;5.208;2023-03-24T08:59:41;11.43;;;2.50;;
20294;SDS011;10306;52.128;5.208;2023-03-24T09:02:08;8.33;;;2.73;;
20294;SDS011;10306;52.128;5.208;2023-03-24T09:04:35;7.80;;;2.47;;
20294;SDS011;10306;52.128;5.208;2023-03-24T09:07:01;5.27;;;2.30;;
20294;SDS011;10306;52.128;5.208;2023-03-24T09:09:27;6.03;;;2.37;;
20294;SDS011;10306;52.128;5.208;2023-03-24T09:11:53;3.77;;;1.80;;
20294;SDS011;10306;52.128;5.208;2023-03-24T09:14:19;7.80;;;2.37;;
20294;SDS011;10306;52.128;5.208;2023-03-24T09:16:49;5.73;;;2.13;;
20294;SDS011;10306;52.128;5.208;2023-03-24T09:19:15;7.07;;;2.17;;
20294;SDS011;10306;52.128;5.208;2023-03-24T09:21:44;4.13;;;1.63;;
20294;SDS011;10306;52.128;5.208;2023-03-24T09:24:11;6.33;;;1.90;;
20294;SDS011;10306;52.128;5.208;2023-03-24T09:26:37;4.57;;;2.33;;
20294;SDS011;10306;52.128;5.208;2023-03-24T09:29:03;10.43;;;2.37;;
20294;SDS011;10306;52.128;5.208;2023-03-24T09:31:29;7.83;;;2.47;;
20294;SDS011;10306;52.128;5.208;2023-03-24T09:33:55;3.97;;;2.30;;
20294;SDS011;10306;52.128;5.208;2023-03-24T09:36:21;5.17;;;1.90;;
20294;SDS011;10306;52.128;5.208;2023-03-24T09:38:47;6.73;;;2.00;;
20294;SDS011;10306;52.128;5.208;2023-03-24T09:41:15;6.00;;;1.87;;
20294;SDS011;10306;52.128;5.208;2023-03-24T09:46:13;6.00;;;2.43;;
20294;SDS011;10306;52.128;5.208;2023-03-24T09:48:47;5.37;;;2.37;;
20294;SDS011;10306;52.128;5.208;2023-03-24T09:51:17;7.67;;;2.20;;
20294;SDS011;10306;52.128;5.208;2023-03-24T09:53:48;6.87;;;3.03;;
20294;SDS011;10306;52.128;5.208;2023-03-24T09:56:16;7.03;;;2.10;;
20294;SDS011;10306;52.128;5.208;2023-03-24T09:58:42;6.27;;;2.17;;
20294;SDS011;10306;52.128;5.208;2023-03-24T10:01:14;6.87;;;2.07;;
20294;SDS011;10306;52.128;5.208;2023-03-24T10:03:43;3.50;;;1.50;;
20294;SDS011;10306;52.128;5.208;2023-03-24T10:08:40;4.87;;;1.50;;
20294;SDS011;10306;52.128;5.208;2023-03-24T10:16:17;3.83;;;1.87;;
20294;SDS011;10306;52.128;5.208;2023-03-24T10:18:48;4.67;;;2.27;;
20294;SDS011;10306;52.128;5.208;2023-03-24T10:21:20;6.10;;;2.30;;
20294;SDS011;10306;52.128;5.208;2023-03-24T10:26:51;5.80;;;1.80;;
20294;SDS011;10306;52.128;5.208;2023-03-24T10:29:21;4.20;;;1.00;;
20294;SDS011;10306;52.128;5.208;2023-03-24T10:31:56;4.03;;;1.70;;
20294;SDS011;10306;52.128;5.208;2023-03-24T10:34:25;5.27;;;1.70;;
20294;SDS011;10306;52.128;5.208;2023-03-24T10:36:53;7.37;;;1.80;;
20294;SDS011;10306;52.128;5.208;2023-03-24T10:39:21;4.63;;;1.50;;
20294;SDS011;10306;52.128;5.208;2023-03-24T10:41:47;6.23;;;1.90;;
20294;SDS011;10306;52.128;5.208;2023-03-24T10:44:13;6.50;;;1.90;;
20294;SDS011;10306;52.128;5.208;2023-03-24T10:46:45;4.83;;;1.33;;
20294;SDS011;10306;52.128;5.208;2023-03-24T10:51:41;4.07;;;2.10;;
20294;SDS011;10306;52.128;5.208;2023-03-24T10:56:40;4.43;;;1.97;;
20294;SDS011;10306;52.128;5.208;2023-03-24T10:59:17;4.80;;;1.73;;
20294;SDS011;10306;52.128;5.208;2023-03-24T11:01:44;3.67;;;1.50;;
20294;SDS011;10306;52.128;5.208;2023-03-24T11:04:11;5.97;;;1.60;;
20294;SDS011;10306;52.128;5.208;2023-03-24T11:06:38;8.13;;;2.17;;
20294;SDS011;10306;52.128;5.208;2023-03-24T11:09:18;6.10;;;2.30;;
20294;SDS011;10306;52.128;5.208;2023-03-24T11:11:44;5.23;;;2.07;;
20294;SDS011;10306;52.128;5.208;2023-03-24T11:14:17;5.27;;;2.00;;
20294;SDS011;10306;52.128;5.208;2023-03-24T11:16:44;3.83;;;1.53;;
20294;SDS011;10306;52.128;5.208;2023-03-24T11:19:20;12.00;;;1.97;;
20294;SDS011;10306;52.128;5.208;2023-03-24T11:21:47;9.57;;;2.10;;
20294;SDS011;10306;52.128;5.208;2023-03-24T11:24:14;5.23;;;1.67;;
20294;SDS011;10306;52.128;5.208;2023-03-24T11:26:43;7.93;;;2.33;;
20294;SDS011;10306;52.128;5.208;2023-03-24T11:29:17;5.00;;;1.73;;
20294;SDS011;10306;52.128;5.208;2023-03-24T11:31:52;4.73;;;2.10;;
20294;SDS011;10306;52.128;5.208;2023-03-24T11:34:23;5.30;;;1.93;;
20294;SDS011;10306;52.128;5.208;2023-03-24T11:37:24;3.00;;;1.87;;
20294;SDS011;10306;52.128;5.208;2023-03-24T11:39:41;6.73;;;2.20;;
20294;SDS011;10306;52.128;5.208;2023-03-24T11:47:05;3.40;;;1.70;;
20294;SDS011;10306;52.128;5.208;2023-03-24T11:49:35;3.13;;;1.90;;
20294;SDS011;10306;52.128;5.208;2023-03-24T11:52:03;5.57;;;1.67;;
20294;SDS011;10306;52.128;5.208;2023-03-24T11:54:32;4.03;;;1.53;;
20294;SDS011;10306;52.128;5.208;2023-03-24T11:57:03;6.10;;;1.73;;
20294;SDS011;10306;52.128;5.208;2023-03-24T12:17:31;1.93;;;1.00;;
20294;SDS011;10306;52.128;5.208;2023-03-24T12:22:47;2.30;;;1.10;;
20294;SDS011;10306;52.128;5.208;2023-03-24T12:25:25;2.77;;;1.20;;
20294;SDS011;10306;52.128;5.208;2023-03-24T12:28:05;3.23;;;1.10;;
20294;SDS011;10306;52.128;5.208;2023-03-24T12:30:42;4.87;;;1.30;;
20294;SDS011;10306;52.128;5.208;2023-03-24T12:33:21;2.87;;;1.13;;
20294;SDS011;10306;52.128;5.208;2023-03-24T12:35:57;2.57;;;0.97;;
20294;SDS011;10306;52.128;5.208;2023-03-24T12:49:10;6.17;;;1.63;;
20294;SDS011;10306;52.128;5.208;2023-03-24T12:51:46;7.00;;;1.37;;
20294;SDS011;10306;52.128;5.208;2023-03-24T12:56:58;2.40;;;1.47;;
20294;SDS011;10306;52.128;5.208;2023-03-24T13:02:00;1.43;;;0.70;;
20294;SDS011;10306;52.128;5.208;2023-03-24T13:04:29;3.60;;;1.20;;
20294;SDS011;10306;52.128;5.208;2023-03-24T13:07:00;1.87;;;0.87;;
20294;SDS011;10306;52.128;5.208;2023-03-24T13:09:45;4.37;;;1.03;;
20294;SDS011;10306;52.128;5.208;2023-03-24T13:17:32;4.73;;;1.10;;
20294;SDS011;10306;52.128;5.208;2023-03-24T13:19:58;2.50;;;1.10;;
20294;SDS011;10306;52.128;5.208;2023-03-24T13:22:26;3.07;;;1.20;;
20294;SDS011;10306;52.128;5.208;2023-03-24T13:24:52;3.43;;;1.30;;
20294;SDS011;10306;52.128;5.208;2023-03-24T13:32:34;4.17;;;1.93;;
20294;SDS011;10306;52.128;5.208;2023-03-24T13:37:47;7.57;;;2.23;;
20294;SDS011;10306;52.128;5.208;2023-03-24T13:40:23;3.27;;;1.23;;
20294;SDS011;10306;52.128;5.208;2023-03-24T13:42:56;4.33;;;1.50;;
20294;SDS011;10306;52.128;5.208;2023-03-24T13:45:29;4.30;;;1.60;;
20294;SDS011;10306;52.128;5.208;2023-03-24T13:50:52;3.37;;;1.67;;
20294;SDS011;10306;52.128;5.208;2023-03-24T13:53:19;4.93;;;1.60;;
20294;SDS011;10306;52.128;5.208;2023-03-24T13:55:50;4.03;;;1.50;;
20294;SDS011;10306;52.128;5.208;2023-03-24T13:58:18;3.17;;;1.30;;
20294;SDS011;10306;52.128;5.208;2023-03-24T14:01:04;5.77;;;2.07;;
20294;SDS011;10306;52.128;5.208;2023-03-24T14:03:32;1.87;;;1.43;;
20294;SDS011;10306;52.128;5.208;2023-03-24T14:06:02;4.80;;;1.50;;
20294;SDS011;10306;52.128;5.208;2023-03-24T14:13:54;6.23;;;1.53;;
20294;SDS011;10306;52.128;5.208;2023-03-24T14:21:40;2.73;;;1.10;;
20294;SDS011;10306;52.128;5.208;2023-03-24T14:24:14;3.17;;;1.17;;
20294;SDS011;10306;52.128;5.208;2023-03-24T14:26:41;1.07;;;1.07;;
20294;SDS011;10306;52.128;5.208;2023-03-24T14:29:25;2.43;;;1.00;;
20294;SDS011;10306;52.128;5.208;2023-03-24T14:31:57;1.10;;;0.90;;
20294;SDS011;10306;52.128;5.208;2023-03-24T14:34:26;5.90;;;1.30;;
20294;SDS011;10306;52.128;5.208;2023-03-24T14:36:56;1.93;;;1.03;;
20294;SDS011;10306;52.128;5.208;2023-03-24T14:41:50;3.13;;;1.07;;
20294;SDS011;10306;52.128;5.208;2023-03-24T14:47:01;3.97;;;0.80;;
20294;SDS011;10306;52.128;5.208;2023-03-24T14:49:29;4.43;;;1.63;;
20294;SDS011;10306;52.128;5.208;2023-03-24T14:51:57;2.83;;;1.00;;
20294;SDS011;10306;52.128;5.208;2023-03-24T14:54:43;2.23;;;1.07;;
20294;SDS011;10306;52.128;5.208;2023-03-24T14:57:29;4.23;;;1.13;;
20294;SDS011;10306;52.128;5.208;2023-03-24T15:07:43;3.57;;;1.30;;
20294;SDS011;10306;52.128;5.208;2023-03-24T15:10:14;2.83;;;1.00;;
20294;SDS011;10306;52.128;5.208;2023-03-24T15:12:44;5.43;;;1.37;;
20294;SDS011;10306;52.128;5.208;2023-03-24T15:15:17;2.53;;;1.10;;
20294;SDS011;10306;52.128;5.208;2023-03-24T15:17:44;3.23;;;1.37;;
20294;SDS011;10306;52.128;5.208;2023-03-24T15:22:45;2.80;;;1.00;;
20294;SDS011;10306;52.128;5.208;2023-03-24T15:25:12;6.60;;;2.23;;
20294;SDS011;10306;52.128;5.208;2023-03-24T15:27:39;6.67;;;1.60;;
20294;SDS011;10306;52.128;5.208;2023-03-24T15:30:05;5.63;;;1.87;;
20294;SDS011;10306;52.128;5.208;2023-03-24T15:32:37;4.00;;;1.43;;
20294;SDS011;10306;52.128;5.208;2023-03-24T15:35:12;4.30;;;1.43;;
20294;SDS011;10306;52.128;5.208;2023-03-24T15:37:39;4.83;;;1.13;;
20294;SDS011;10306;52.128;5.208;2023-03-24T15:40:29;3.63;;;1.20;;
20294;SDS011;10306;52.128;5.208;2023-03-24T15:42:54;6.70;;;1.50;;
20294;SDS011;10306;52.128;5.208;2023-03-24T15:47:53;6.50;;;1.87;;
20294;SDS011;10306;52.128;5.208;2023-03-24T15:50:30;6.33;;;1.47;;
20294;SDS011;10306;52.128;5.208;2023-03-24T15:53:38;2.33;;;1.10;;
20294;SDS011;10306;52.128;5.208;2023-03-24T15:55:45;5.63;;;1.83;;
20294;SDS011;10306;52.128;5.208;2023-03-24T15:58:19;5.00;;;1.37;;
20294;SDS011;10306;52.128;5.208;2023-03-24T16:00:46;3.33;;;1.20;;
20294;SDS011;10306;52.128;5.208;2023-03-24T16:03:14;4.63;;;1.30;;
20294;SDS011;10306;52.128;5.208;2023-03-24T16:05:45;4.83;;;1.40;;
20294;SDS011;10306;52.128;5.208;2023-03-24T16:13:22;8.07;;;1.60;;
20294;SDS011;10306;52.128;5.208;2023-03-24T16:18:22;3.17;;;1.00;;
20294;SDS011;10306;52.128;5.208;2023-03-24T16:20:49;5.43;;;1.47;;
20294;SDS011;10306;52.128;5.208;2023-03-24T16:23:16;5.80;;;1.87;;
20294;SDS011;10306;52.128;5.208;2023-03-24T16:25:42;5.53;;;1.43;;
20294;SDS011;10306;52.128;5.208;2023-03-24T16:28:11;9.93;;;1.37;;
20294;SDS011;10306;52.128;5.208;2023-03-24T16:30:38;5.10;;;1.70;;
20294;SDS011;10306;52.128;5.208;2023-03-24T16:33:05;5.60;;;1.80;;
20294;SDS011;10306;52.128;5.208;2023-03-24T16:35:32;5.77;;;1.60;;
20294;SDS011;10306;52.128;5.208;2023-03-24T16:37:58;7.93;;;1.93;;
20294;SDS011;10306;52.128;5.208;2023-03-24T16:40:26;3.77;;;1.30;;
20294;SDS011;10306;52.128;5.208;2023-03-24T16:42:55;5.87;;;1.43;;
20294;SDS011;10306;52.128;5.208;2023-03-24T16:45:23;6.73;;;1.20;;
20294;SDS011;10306;52.128;5.208;2023-03-24T16:47:49;4.70;;;1.53;;
20294;SDS011;10306;52.128;5.208;2023-03-24T16:50:23;3.43;;;1.37;;
20294;SDS011;10306;52.128;5.208;2023-03-24T16:52:51;2.90;;;1.20;;
20294;SDS011;10306;52.128;5.208;2023-03-24T16:55:17;4.73;;;1.57;;
20294;SDS011;10306;52.128;5.208;2023-03-24T16:57:43;5.13;;;1.50;;
20294;SDS011;10306;52.128;5.208;2023-03-24T17:00:09;2.00;;;1.10;;
20294;SDS011;10306;52.128;5.208;2023-03-24T17:02:36;3.50;;;1.43;;
20294;SDS011;10306;52.128;5.208;2023-03-24T17:05:09;8.50;;;1.47;;
20294;SDS011;10306;52.128;5.208;2023-03-24T17:07:41;4.07;;;1.77;;
20294;SDS011;10306;52.128;5.208;2023-03-24T17:10:07;4.73;;;1.40;;
20294;SDS011;10306;52.128;5.208;2023-03-24T17:12:33;8.97;;;1.77;;
20294;SDS011;10306;52.128;5.208;2023-03-24T17:14:59;5.57;;;2.07;;
20294;SDS011;10306;52.128;5.208;2023-03-24T17:17:25;6.27;;;2.17;;
20294;SDS011;10306;52.128;5.208;2023-03-24T17:19:51;2.47;;;1.30;;
20294;SDS011;10306;52.128;5.208;2023-03-24T17:22:17;3.87;;;1.37;;
20294;SDS011;10306;52.128;5.208;2023-03-24T17:24:43;5.20;;;1.70;;
20294;SDS011;10306;52.128;5.208;2023-03-24T17:27:14;5.50;;;1.50;;
20294;SDS011;10306;52.128;5.208;2023-03-24T17:29:41;4.83;;;1.67;;
20294;SDS011;10306;52.128;5.208;2023-03-24T17:32:07;3.50;;;1.40;;